sensor_id;sensor_type;location;lat;lon;timestamp;pressure;altitude;pressure_sealevel;temperature;humidity
61674;BME280;47573;43.832;5.974;2023-04-05T00:04:24;95083.91;;;23.31;60.34
61674;BME280;47573;43.832;5.974;2023-04-05T00:11:05;95074.81;;;23.25;59.96
61674;BME280;47573;43.832;5.974;2023-04-05T00:17:47;95078.03;;;23.22;59.96
61674;BME280;47573;43.832;5.974;2023-04-05T00:24:27;95077.38;;;23.15;59.98
61674;BME280;47573;43.832;5.974;2023-04-05T00:31:08;95078.06;;;23.05;58.47
61674;BME280;47573;43.832;5.974;2023-04-05T00:37:50;95075.41;;;22.94;59.29
61674;BME280;47573;43.832;5.974;2023-04-05T00:44:31;95069.66;;;22.90;59.34
61674;BME280;47573;43.832;5.974;2023-04-05T00:51:12;95061.75;;;22.89;59.75
61674;BME280;47573;43.832;5.974;2023-04-05T00:57:54;95071.47;;;22.85;59.73
61674;BME280;47573;43.832;5.974;2023-04-05T01:04:36;95062.22;;;22.86;59.22
61674;BME280;47573;43.832;5.974;2023-04-05T01:11:17;95049.69;;;22.85;59.09
61674;BME280;47573;43.832;5.974;2023-04-05T01:17:59;95049.88;;;22.78;58.99
61674;BME280;47573;43.832;5.974;2023-04-05T01:24:51;95049.28;;;22.76;59.11
61674;BME280;47573;43.832;5.974;2023-04-05T01:31:46;95046.25;;;22.73;58.95
61674;BME280;47573;43.832;5.974;2023-04-05T01:38:29;95039.63;;;22.69;59.16
61674;BME280;47573;43.832;5.974;2023-04-05T01:45:11;95043.13;;;22.64;59.02
61674;BME280;47573;43.832;5.974;2023-04-05T01:51:52;95041.13;;;22.60;59.24
61674;BME280;47573;43.832;5.974;2023-04-05T01:58:33;95025.75;;;22.54;59.37
61674;BME280;47573;43.832;5.974;2023-04-05T02:05:14;95015.88;;;22.48;59.28
61674;BME280;47573;43.832;5.974;2023-04-05T02:11:55;95014.72;;;22.44;59.24
61674;BME280;47573;43.832;5.974;2023-04-05T02:18:36;95002.69;;;22.39;58.99
61674;BME280;47573;43.832;5.974;2023-04-05T02:25:17;95004.47;;;22.34;59.25
61674;BME280;47573;43.832;5.974;2023-04-05T02:31:59;94995.72;;;22.32;59.15
61674;BME280;47573;43.832;5.974;2023-04-05T02:38:39;95000.28;;;22.26;59.27
61674;BME280;47573;43.832;5.974;2023-04-05T02:45:20;94985.53;;;22.22;59.42
61674;BME280;47573;43.832;5.974;2023-04-05T02:52:02;94982.13;;;22.15;59.30
61674;BME280;47573;43.832;5.974;2023-04-05T02:58:42;94996.22;;;22.12;59.59
61674;BME280;47573;43.832;5.974;2023-04-05T03:05:22;94996.69;;;22.09;59.51
61674;BME280;47573;43.832;5.974;2023-04-05T03:12:05;95005.38;;;22.06;59.42
61674;BME280;47573;43.832;5.974;2023-04-05T03:18:45;95008.56;;;22.03;59.18
61674;BME280;47573;43.832;5.974;2023-04-05T03:25:26;95029.16;;;21.99;59.52
61674;BME280;47573;43.832;5.974;2023-04-05T03:32:07;95024.19;;;21.96;59.33
61674;BME280;47573;43.832;5.974;2023-04-05T03:38:48;95032.25;;;21.91;59.68
61674;BME280;47573;43.832;5.974;2023-04-05T03:45:28;95032.72;;;21.88;59.49
61674;BME280;47573;43.832;5.974;2023-04-05T03:52:10;95033.56;;;21.89;59.16
61674;BME280;47573;43.832;5.974;2023-04-05T03:58:51;95026.72;;;21.86;59.40
61674;BME280;47573;43.832;5.974;2023-04-05T04:05:32;95028.28;;;21.82;59.43
61674;BME280;47573;43.832;5.974;2023-04-05T04:12:14;95021.63;;;21.78;59.42
61674;BME280;47573;43.832;5.974;2023-04-05T04:18:54;95014.56;;;21.77;59.36
61674;BME280;47573;43.832;5.974;2023-04-05T04:25:35;95009.50;;;21.69;59.47
61674;BME280;47573;43.832;5.974;2023-04-05T04:32:17;95021.44;;;21.68;59.62
61674;BME280;47573;43.832;5.974;2023-04-05T04:38:57;95022.41;;;21.62;59.45
61674;BME280;47573;43.832;5.974;2023-04-05T04:45:38;95025.38;;;21.60;59.48
61674;BME280;47573;43.832;5.974;2023-04-05T04:52:20;95028.81;;;21.56;59.49
61674;BME280;47573;43.832;5.974;2023-04-05T04:59:00;95030.38;;;21.52;59.68
61674;BME280;47573;43.832;5.974;2023-04-05T06:04:04;95060.03;;;21.42;59.04
61674;BME280;47573;43.832;5.974;2023-04-05T06:10:45;95064.00;;;21.51;60.10
61674;BME280;47573;43.832;5.974;2023-04-05T06:17:25;95070.34;;;21.68;60.07
61674;BME280;47573;43.832;5.974;2023-04-05T06:24:07;95068.41;;;21.80;60.62
61674;BME280;47573;43.832;5.974;2023-04-05T06:30:48;95080.94;;;21.93;60.37
61674;BME280;47573;43.832;5.974;2023-04-05T06:37:28;95076.91;;;21.95;60.65
61674;BME280;47573;43.832;5.974;2023-04-05T06:44:10;95071.66;;;22.05;60.59
61674;BME280;47573;43.832;5.974;2023-04-05T06:50:56;95072.84;;;22.09;60.95
61674;BME280;47573;43.832;5.974;2023-04-05T06:57:36;95066.41;;;22.15;61.02
61674;BME280;47573;43.832;5.974;2023-04-05T07:04:19;95072.03;;;22.25;60.76
61674;BME280;47573;43.832;5.974;2023-04-05T07:11:00;95074.03;;;22.30;60.63
61674;BME280;47573;43.832;5.974;2023-04-05T07:17:40;95076.13;;;22.39;60.52
61674;BME280;47573;43.832;5.974;2023-04-05T07:24:22;95070.75;;;22.45;60.25
61674;BME280;47573;43.832;5.974;2023-04-05T07:31:05;95067.97;;;22.56;59.96
61674;BME280;47573;43.832;5.974;2023-04-05T07:37:46;95065.09;;;22.63;60.34
61674;BME280;47573;43.832;5.974;2023-04-05T07:44:27;95078.91;;;22.73;59.99
61674;BME280;47573;43.832;5.974;2023-04-05T07:51:08;95077.41;;;22.82;59.67
61674;BME280;47573;43.832;5.974;2023-04-05T07:57:49;95087.06;;;22.89;59.62
61674;BME280;47573;43.832;5.974;2023-04-05T08:04:31;95089.97;;;22.99;59.56
61674;BME280;47573;43.832;5.974;2023-04-05T08:11:12;95092.25;;;23.07;59.13
61674;BME280;47573;43.832;5.974;2023-04-05T08:17:52;95101.31;;;23.13;59.07
61674;BME280;47573;43.832;5.974;2023-04-05T08:24:34;95100.84;;;23.16;58.37
61674;BME280;47573;43.832;5.974;2023-04-05T08:31:15;95104.63;;;23.15;57.61
61674;BME280;47573;43.832;5.974;2023-04-05T08:37:55;95099.69;;;23.12;57.35
61674;BME280;47573;43.832;5.974;2023-04-05T08:44:39;95105.13;;;23.12;57.47
61674;BME280;47573;43.832;5.974;2023-04-05T08:51:20;95098.03;;;23.11;57.69
61674;BME280;47573;43.832;5.974;2023-04-05T08:58:06;95104.47;;;23.05;57.89
61674;BME280;47573;43.832;5.974;2023-04-05T09:04:51;95112.16;;;23.08;57.83
61674;BME280;47573;43.832;5.974;2023-04-05T09:11:32;95113.38;;;23.17;57.66
61674;BME280;47573;43.832;5.974;2023-04-05T09:18:13;95117.59;;;23.25;57.49
61674;BME280;47573;43.832;5.974;2023-04-05T09:24:55;95110.22;;;23.25;55.03
61674;BME280;47573;43.832;5.974;2023-04-05T09:31:35;95114.03;;;23.24;56.43
61674;BME280;47573;43.832;5.974;2023-04-05T09:38:16;95120.97;;;23.15;56.83
61674;BME280;47573;43.832;5.974;2023-04-05T09:44:59;95123.94;;;23.13;57.08
61674;BME280;47573;43.832;5.974;2023-04-05T09:51:40;95116.19;;;23.05;57.02
61674;BME280;47573;43.832;5.974;2023-04-05T09:58:21;95104.63;;;23.15;56.89
61674;BME280;47573;43.832;5.974;2023-04-05T10:05:04;95105.13;;;23.12;56.72
61674;BME280;47573;43.832;5.974;2023-04-05T10:11:45;95103.63;;;23.21;55.67
61674;BME280;47573;43.832;5.974;2023-04-05T10:18:29;95105.59;;;23.26;55.92
61674;BME280;47573;43.832;5.974;2023-04-05T10:25:21;95103.63;;;23.21;55.70
61674;BME280;47573;43.832;5.974;2023-04-05T10:32:10;95104.19;;;23.23;56.82
61674;BME280;47573;43.832;5.974;2023-04-05T10:39:00;95089.44;;;23.19;57.45
61674;BME280;47573;43.832;5.974;2023-04-05T10:45:43;95092.16;;;23.19;57.78
61674;BME280;47573;43.832;5.974;2023-04-05T10:52:23;95100.84;;;23.16;58.08
61674;BME280;47573;43.832;5.974;2023-04-05T10:59:05;95088.84;;;23.17;58.10
61674;BME280;47573;43.832;5.974;2023-04-05T11:05:47;95081.78;;;23.16;57.41
61674;BME280;47573;43.832;5.974;2023-04-05T11:13:03;95075.75;;;23.14;57.28
61674;BME280;47573;43.832;5.974;2023-04-05T11:19:50;95056.75;;;23.19;58.08
61674;BME280;47573;43.832;5.974;2023-04-05T11:26:32;95057.25;;;23.16;57.43
61674;BME280;47573;43.832;5.974;2023-04-05T11:33:37;95058.06;;;23.16;57.67
61674;BME280;47573;43.832;5.974;2023-04-05T11:40:26;95056.00;;;23.24;57.48
61674;BME280;47573;43.832;5.974;2023-04-05T11:47:08;95043.25;;;23.29;56.94
61674;BME280;47573;43.832;5.974;2023-04-05T11:53:49;95042.69;;;23.27;57.13
61674;BME280;47573;43.832;5.974;2023-04-05T12:00:29;95050.28;;;23.25;56.83
61674;BME280;47573;43.832;5.974;2023-04-05T12:07:15;95042.06;;;23.20;56.83
61674;BME280;47573;43.832;5.974;2023-04-05T12:13:57;95034.38;;;23.17;57.08
61674;BME280;47573;43.832;5.974;2023-04-05T12:20:38;95022.34;;;23.13;56.66
61674;BME280;47573;43.832;5.974;2023-04-05T12:27:20;95009.88;;;23.17;56.40
61674;BME280;47573;43.832;5.974;2023-04-05T12:34:01;95001.13;;;23.15;56.04
61674;BME280;47573;43.832;5.974;2023-04-05T12:40:42;94993.03;;;23.20;56.08
61674;BME280;47573;43.832;5.974;2023-04-05T12:47:27;94994.66;;;23.21;56.20
61674;BME280;47573;43.832;5.974;2023-04-05T12:54:10;94981.13;;;23.26;56.12
61674;BME280;47573;43.832;5.974;2023-04-05T13:00:51;94980.59;;;23.29;56.11
61674;BME280;47573;43.832;5.974;2023-04-05T13:07:33;94975.69;;;23.26;55.82
61674;BME280;47573;43.832;5.974;2023-04-05T13:14:13;94962.06;;;23.26;55.78
61674;BME280;47573;43.832;5.974;2023-04-05T13:20:54;94958.69;;;23.19;52.40
61674;BME280;47573;43.832;5.974;2023-04-05T13:27:36;94954.25;;;23.13;55.50
61674;BME280;47573;43.832;5.974;2023-04-05T13:34:17;94948.88;;;23.18;55.56
61674;BME280;47573;43.832;5.974;2023-04-05T13:41:00;94942.34;;;23.19;55.83
61674;BME280;47573;43.832;5.974;2023-04-05T13:47:42;94934.06;;;23.09;55.95
61674;BME280;47573;43.832;5.974;2023-04-05T13:54:23;94927.03;;;23.13;55.72
61674;BME280;47573;43.832;5.974;2023-04-05T14:01:03;94927.03;;;23.13;56.13
61674;BME280;47573;43.832;5.974;2023-04-05T14:07:45;94919.94;;;23.12;56.41
61674;BME280;47573;43.832;5.974;2023-04-05T14:14:26;94915.28;;;23.12;55.71
61674;BME280;47573;43.832;5.974;2023-04-05T14:21:07;94905.63;;;23.22;56.18
61674;BME280;47573;43.832;5.974;2023-04-05T14:27:49;94893.78;;;23.11;56.33
61674;BME280;47573;43.832;5.974;2023-04-05T14:34:29;94904.75;;;23.16;56.58
61674;BME280;47573;43.832;5.974;2023-04-05T14:41:10;94883.56;;;23.23;56.67
61674;BME280;47573;43.832;5.974;2023-04-05T14:47:52;94891.94;;;23.38;56.83
61674;BME280;47573;43.832;5.974;2023-04-05T14:54:32;94882.25;;;23.47;57.23
61674;BME280;47573;43.832;5.974;2023-04-05T15:01:13;94883.41;;;23.56;56.92
61674;BME280;47573;43.832;5.974;2023-04-05T15:07:55;94870.88;;;23.55;57.29
61674;BME280;47573;43.832;5.974;2023-04-05T15:14:35;94861.88;;;23.55;57.39
61674;BME280;47573;43.832;5.974;2023-04-05T15:21:16;94871.81;;;23.66;57.40
61674;BME280;47573;43.832;5.974;2023-04-05T15:27:58;94868.31;;;23.70;57.99
61674;BME280;47573;43.832;5.974;2023-04-05T15:34:38;94858.28;;;23.76;58.31
61674;BME280;47573;43.832;5.974;2023-04-05T15:41:19;94860.25;;;23.85;57.55
61674;BME280;47573;43.832;5.974;2023-04-05T15:48:01;94864.00;;;23.79;57.99
61674;BME280;47573;43.832;5.974;2023-04-05T15:54:42;94856.97;;;23.83;58.60
61674;BME280;47573;43.832;5.974;2023-04-05T16:01:22;94853.75;;;23.91;58.51
61674;BME280;47573;43.832;5.974;2023-04-05T16:08:04;94851.59;;;23.93;58.62
61674;BME280;47573;43.832;5.974;2023-04-05T16:14:45;94849.44;;;23.95;59.02
61674;BME280;47573;43.832;5.974;2023-04-05T16:21:26;94858.16;;;23.97;58.71
61674;BME280;47573;43.832;5.974;2023-04-05T16:28:08;94855.44;;;23.97;59.11
61674;BME280;47573;43.832;5.974;2023-04-05T16:34:48;94848.41;;;24.02;59.57
61674;BME280;47573;43.832;5.974;2023-04-05T16:41:29;94847.41;;;24.08;58.44
61674;BME280;47573;43.832;5.974;2023-04-05T16:48:11;94852.59;;;24.14;58.92
61674;BME280;47573;43.832;5.974;2023-04-05T16:54:52;94854.00;;;24.17;59.16
61674;BME280;47573;43.832;5.974;2023-04-05T17:01:33;94853.44;;;24.15;59.33
61674;BME280;47573;43.832;5.974;2023-04-05T17:08:15;94862.78;;;24.24;58.80
61674;BME280;47573;43.832;5.974;2023-04-05T17:14:55;94861.13;;;24.23;59.27
61674;BME280;47573;43.832;5.974;2023-04-05T17:21:36;94861.22;;;24.33;59.13
61674;BME280;47573;43.832;5.974;2023-04-05T17:28:18;94863.38;;;24.31;58.44
61674;BME280;47573;43.832;5.974;2023-04-05T17:34:59;94868.81;;;24.31;58.97
61674;BME280;47573;43.832;5.974;2023-04-05T17:41:39;94876.53;;;24.39;58.21
61674;BME280;47573;43.832;5.974;2023-04-05T17:48:21;94890.75;;;24.41;57.92
61674;BME280;47573;43.832;5.974;2023-04-05T17:55:03;94903.91;;;24.49;57.64
61674;BME280;47573;43.832;5.974;2023-04-05T18:01:44;94926.25;;;24.46;58.39
61674;BME280;47573;43.832;5.974;2023-04-05T18:08:26;94936.13;;;24.52;58.04
61674;BME280;47573;43.832;5.974;2023-04-05T18:15:06;94945.41;;;24.51;57.36
61674;BME280;47573;43.832;5.974;2023-04-05T18:21:47;94962.34;;;24.58;57.55
61674;BME280;47573;43.832;5.974;2023-04-05T18:28:29;94969.69;;;24.52;58.36
61674;BME280;47573;43.832;5.974;2023-04-05T18:35:10;94981.72;;;24.56;58.37
61674;BME280;47573;43.832;5.974;2023-04-05T18:41:51;95001.13;;;24.55;58.93
61674;BME280;47573;43.832;5.974;2023-04-05T18:48:33;95021.84;;;24.56;59.43
61674;BME280;47573;43.832;5.974;2023-04-05T18:55:13;95037.78;;;24.64;59.54
61674;BME280;47573;43.832;5.974;2023-04-05T19:01:54;95047.09;;;24.68;59.51
61674;BME280;47573;43.832;5.974;2023-04-05T19:08:36;95050.00;;;24.88;59.28
61674;BME280;47573;43.832;5.974;2023-04-05T19:15:16;95064.22;;;24.90;59.30
61674;BME280;47573;43.832;5.974;2023-04-05T19:21:57;95079.28;;;24.93;59.74
61674;BME280;47573;43.832;5.974;2023-04-05T19:28:39;95076.78;;;24.91;60.01
61674;BME280;47573;43.832;5.974;2023-04-05T19:35:19;95087.19;;;24.94;59.90
61674;BME280;47573;43.832;5.974;2023-04-05T19:42:00;95104.41;;;24.95;59.93
61674;BME280;47573;43.832;5.974;2023-04-05T19:48:43;95109.66;;;25.01;59.98
61674;BME280;47573;43.832;5.974;2023-04-05T19:55:26;95115.13;;;25.01;60.24
61674;BME280;47573;43.832;5.974;2023-04-05T20:02:18;95116.19;;;25.00;60.18
61674;BME280;47573;43.832;5.974;2023-04-05T20:09:07;95120.59;;;25.01;59.83
61674;BME280;47573;43.832;5.974;2023-04-05T20:15:48;95140.28;;;25.03;60.32
61674;BME280;47573;43.832;5.974;2023-04-05T20:22:30;95134.28;;;25.06;60.65
61674;BME280;47573;43.832;5.974;2023-04-05T20:29:14;95144.66;;;25.04;60.69
61674;BME280;47573;43.832;5.974;2023-04-05T20:35:57;95147.38;;;25.04;60.73
61674;BME280;47573;43.832;5.974;2023-04-05T20:42:38;95149.53;;;25.02;60.94
61674;BME280;47573;43.832;5.974;2023-04-05T20:49:20;95155.00;;;25.02;60.99
61674;BME280;47573;43.832;5.974;2023-04-05T20:56:02;95165.94;;;25.02;60.63
61674;BME280;47573;43.832;5.974;2023-04-05T21:02:42;95167.91;;;24.80;60.99
61674;BME280;47573;43.832;5.974;2023-04-05T21:09:24;95163.66;;;24.67;60.72
61674;BME280;47573;43.832;5.974;2023-04-05T21:16:05;95168.50;;;24.60;60.40
61674;BME280;47573;43.832;5.974;2023-04-05T21:22:46;95164.31;;;24.53;60.57
61674;BME280;47573;43.832;5.974;2023-04-05T21:29:28;95164.25;;;24.48;60.31
61674;BME280;47573;43.832;5.974;2023-04-05T21:36:08;95172.41;;;24.43;60.23
61674;BME280;47573;43.832;5.974;2023-04-05T21:42:49;95171.75;;;24.36;60.42
61674;BME280;47573;43.832;5.974;2023-04-05T21:49:31;95182.59;;;24.31;59.95
61674;BME280;47573;43.832;5.974;2023-04-05T21:56:11;95176.53;;;24.24;59.73
61674;BME280;47573;43.832;5.974;2023-04-05T22:02:52;95187.06;;;24.37;59.07
61674;BME280;47573;43.832;5.974;2023-04-05T22:09:34;95189.16;;;24.30;59.64
61674;BME280;47573;43.832;5.974;2023-04-05T22:16:14;95198.94;;;24.26;59.51
61674;BME280;47573;43.832;5.974;2023-04-05T22:22:55;95193.53;;;24.09;55.69
61674;BME280;47573;43.832;5.974;2023-04-05T22:29:37;95200.88;;;24.09;57.18
61674;BME280;47573;43.832;5.974;2023-04-05T22:36:17;95204.50;;;24.14;57.71
61674;BME280;47573;43.832;5.974;2023-04-05T22:42:58;95209.06;;;24.09;57.86
61674;BME280;47573;43.832;5.974;2023-04-05T22:49:40;95210.31;;;24.01;58.17
61674;BME280;47573;43.832;5.974;2023-04-05T22:56:21;95213.78;;;23.96;58.09
61674;BME280;47573;43.832;5.974;2023-04-05T23:03:02;95215.38;;;23.92;58.06
61674;BME280;47573;43.832;5.974;2023-04-05T23:09:44;95212.56;;;23.87;57.80
61674;BME280;47573;43.832;5.974;2023-04-05T23:16:24;95211.09;;;23.80;58.08
61674;BME280;47573;43.832;5.974;2023-04-05T23:23:05;95221.69;;;23.76;58.17
61674;BME280;47573;43.832;5.974;2023-04-05T23:29:47;95223.84;;;23.74;57.97
61674;BME280;47573;43.832;5.974;2023-04-05T23:36:27;95219.59;;;23.67;58.24
61674;BME280;47573;43.832;5.974;2023-04-05T23:43:08;95212.75;;;23.64;58.25
61674;BME280;47573;43.832;5.974;2023-04-05T23:49:50;95219.19;;;23.58;58.18
61674;BME280;47573;43.832;5.974;2023-04-05T23:56:30;95208.81;;;23.55;58.07
